Time;durP1;ratioP1;P1;durP2;ratioP2;P2;SDS_P1;SDS_P2;PMS_P1;PMS_P2;Temp;Humidity;BMP_temperature;BMP_pressure;BME280_temperature;BME280_humidity;BME280_pressure;Samples;Min_cycle;Max_cycle;Signal;HPM_P1;HPM_P2
2022/07/09 00:01:52;;;;;;;6.00;2.80;;;;;;;13.32;100.00;100422.44;4191023;28;20364;-63
2022/07/09 00:04:19;;;;;;;8.03;3.10;;;;;;;13.38;100.00;100424.47;4195110;28;20296;-67
2022/07/09 00:06:45;;;;;;;6.50;2.73;;;;;;;13.57;100.00;100419.81;4189089;28;20237;-65
2022/07/09 00:09:13;;;;;;;7.00;2.50;;;;;;;13.64;100.00;100431.53;4183037;28;20236;-66
2022/07/09 00:11:39;;;;;;;4.20;1.67;;;;;;;13.55;100.00;100428.00;4170045;28;20241;-67
2022/07/09 00:14:06;;;;;;;6.17;2.20;;;;;;;13.51;100.00;100430.19;4185110;28;20268;-64
2022/07/09 00:16:32;;;;;;;12.70;2.33;;;;;;;13.47;100.00;100428.00;4186405;28;21514;-64
2022/07/09 00:18:59;;;;;;;6.17;2.40;;;;;;;13.47;100.00;100431.50;4192103;28;20241;-66
2022/07/09 00:21:25;;;;;;;6.83;2.07;;;;;;;13.51;100.00;100435.53;4191634;28;23275;-67
2022/07/09 00:23:52;;;;;;;4.83;2.20;;;;;;;13.52;100.00;100428.34;4174938;28;22455;-66
2022/07/09 00:26:19;;;;;;;7.30;2.43;;;;;;;13.54;100.00;100429.00;4172157;28;21817;-64
2022/07/09 00:28:45;;;;;;;10.93;2.27;;;;;;;13.56;100.00;100431.53;4186629;28;20240;-66
2022/07/09 00:31:12;;;;;;;8.80;2.50;;;;;;;13.68;100.00;100435.56;4196804;28;20236;-68
2022/07/09 00:33:39;;;;;;;6.70;2.40;;;;;;;13.74;100.00;100429.53;4180527;28;22351;-64
2022/07/09 00:36:06;;;;;;;6.87;2.97;;;;;;;13.85;100.00;100429.19;4190920;28;20237;-65
2022/07/09 00:38:32;;;;;;;5.97;2.53;;;;;;;13.84;100.00;100422.19;4194299;28;20241;-67
2022/07/09 00:40:59;;;;;;;6.33;2.70;;;;;;;13.96;100.00;100427.22;4177729;28;20276;-66
2022/07/09 00:43:26;;;;;;;8.00;2.90;;;;;;;13.94;100.00;100425.53;4177615;28;20237;-68
2022/07/09 00:45:52;;;;;;;7.63;2.47;;;;;;;14.05;100.00;100431.56;4178511;28;20225;-64
2022/07/09 00:48:19;;;;;;;12.07;2.90;;;;;;;13.90;100.00;100424.19;4187666;28;20233;-63
2022/07/09 00:50:46;;;;;;;9.63;3.27;;;;;;;14.00;100.00;100425.84;4174966;28;20236;-63
2022/07/09 00:53:15;;;;;;;7.10;3.00;;;;;;;14.03;100.00;100430.91;4181547;28;20292;-66
2022/07/09 00:55:44;;;;;;;12.17;2.83;;;;;;;14.07;100.00;100425.03;4180350;28;20660;-65
2022/07/09 00:58:12;;;;;;;10.13;2.70;;;;;;;13.98;100.00;100425.19;4183512;28;20244;-65
2022/07/09 01:00:40;;;;;;;7.17;2.50;;;;;;;14.07;100.00;100417.00;4175176;28;20232;-63
2022/07/09 01:03:07;;;;;;;9.33;2.60;;;;;;;14.10;100.00;100410.47;4200716;28;25581;-67
2022/07/09 01:05:37;;;;;;;6.23;2.67;;;;;;;14.21;100.00;100415.50;4187654;28;20240;-65
2022/07/09 01:08:05;;;;;;;12.90;3.07;;;;;;;14.21;100.00;100412.81;4204668;28;20228;-65
2022/07/09 01:10:33;;;;;;;8.57;2.77;;;;;;;14.28;100.00;100418.31;4199712;28;20781;-65
2022/07/09 01:13:02;;;;;;;7.13;3.00;;;;;;;14.19;100.00;100419.31;4192820;28;20241;-66
2022/07/09 01:15:28;;;;;;;11.17;3.13;;;;;;;14.13;100.00;100419.00;4194703;28;20224;-73
2022/07/09 01:17:57;;;;;;;9.07;3.60;;;;;;;14.06;100.00;100407.28;4201480;28;20231;-62
2022/07/09 01:20:25;;;;;;;9.53;3.47;;;;;;;14.14;100.00;100411.78;4197932;28;22072;-64
2022/07/09 01:22:52;;;;;;;11.50;4.03;;;;;;;14.01;100.00;100403.47;4192566;28;20245;-64
2022/07/09 01:25:19;;;;;;;11.07;3.53;;;;;;;14.02;100.00;100399.78;4209099;28;23390;-65
2022/07/09 01:27:46;;;;;;;8.10;3.30;;;;;;;14.04;100.00;100403.94;4186633;28;20232;-65
2022/07/09 01:30:23;;;;;;;9.20;3.03;;;;;;;13.95;100.00;100404.94;4192960;28;20686;-64
2022/07/09 01:32:50;;;;;;;9.93;3.50;;;;;;;13.79;100.00;100403.13;4200771;28;20354;-64
2022/07/09 01:35:17;;;;;;;10.17;3.20;;;;;;;13.73;100.00;100404.63;4195543;28;20341;-64
2022/07/09 01:37:44;;;;;;;9.20;3.40;;;;;;;13.80;100.00;100396.78;4186529;28;20232;-63
2022/07/09 01:40:11;;;;;;;10.40;3.60;;;;;;;13.72;100.00;100404.81;4201122;28;20297;-64
2022/07/09 01:42:38;;;;;;;10.93;3.47;;;;;;;13.56;100.00;100394.09;4202177;28;20228;-64
2022/07/09 01:45:05;;;;;;;8.53;3.80;;;;;;;13.51;100.00;100392.75;4173639;28;20747;-64
2022/07/09 01:47:32;;;;;;;9.20;3.77;;;;;;;13.55;100.00;100392.41;4191511;28;20225;-64
2022/07/09 01:49:58;;;;;;;12.23;3.90;;;;;;;13.65;100.00;100401.09;4199412;28;20914;-62
2022/07/09 01:52:25;;;;;;;7.83;3.43;;;;;;;13.56;100.00;100394.09;4194956;28;20273;-62
2022/07/09 01:54:51;;;;;;;14.37;3.73;;;;;;;13.47;100.00;100390.56;4198980;28;20568;-65
2022/07/09 01:57:18;;;;;;;8.83;2.87;;;;;;;13.52;100.00;100394.41;4198314;28;20236;-63
2022/07/09 01:59:45;;;;;;;7.03;3.10;;;;;;;13.52;100.00;100406.94;4182314;28;20291;-62
2022/07/09 02:02:11;;;;;;;8.73;3.23;;;;;;;13.52;100.00;100405.09;4185575;28;20241;-65
2022/07/09 02:04:39;;;;;;;12.73;3.70;;;;;;;13.49;100.00;100404.59;4179546;28;20246;-63
2022/07/09 02:07:05;;;;;;;7.13;2.77;;;;;;;13.50;100.00;100401.75;4195488;28;20244;-63
2022/07/09 02:09:32;;;;;;;7.47;3.00;;;;;;;13.48;100.00;100401.06;4201560;28;22002;-63
2022/07/09 02:11:58;;;;;;;12.07;3.33;;;;;;;13.47;100.00;100396.75;4200308;28;20996;-63
2022/07/09 02:14:25;;;;;;;8.03;2.63;;;;;;;13.51;100.00;100398.09;4202176;28;22945;-63
2022/07/09 02:16:51;;;;;;;8.83;3.07;;;;;;;13.47;100.00;100393.25;4206465;28;20552;-66
2022/07/09 02:19:18;;;;;;;10.03;3.30;;;;;;;13.32;100.00;100390.34;4199620;28;20700;-63
2022/07/09 02:21:44;;;;;;;6.03;2.87;;;;;;;13.38;100.00;100394.22;4189190;28;20236;-62
2022/07/09 02:24:11;;;;;;;9.77;3.30;;;;;;;13.36;100.00;100393.56;4203682;28;20240;-63
2022/07/09 02:26:37;;;;;;;7.67;3.10;;;;;;;13.31;100.00;100380.69;4192858;28;20236;-64
2022/07/09 02:29:04;;;;;;;7.00;3.00;;;;;;;13.25;100.00;100386.63;4206404;28;20232;-67
2022/07/09 02:31:31;;;;;;;15.57;3.47;;;;;;;13.23;100.00;100384.16;4199735;28;20240;-65
2022/07/09 02:33:58;;;;;;;13.67;3.07;;;;;;;13.24;100.00;100390.31;4201733;28;21075;-65
2022/07/09 02:36:24;;;;;;;8.13;3.63;;;;;;;13.27;100.00;100389.97;4199849;28;20237;-64
2022/07/09 02:38:51;;;;;;;9.67;3.23;;;;;;;13.20;100.00;100387.13;4193996;28;21804;-63
2022/07/09 02:41:18;;;;;;;10.33;3.10;;;;;;;13.23;100.00;100381.47;4203244;28;20282;-65
2022/07/09 02:43:45;;;;;;;14.57;3.93;;;;;;;13.22;100.00;100387.81;4200926;28;20512;-63
2022/07/09 02:46:12;;;;;;;11.47;3.53;;;;;;;13.27;100.00;100392.66;4213125;28;21665;-64
2022/07/09 02:48:39;;;;;;;9.83;3.23;;;;;;;13.22;100.00;100386.97;4204954;28;22065;-63
2022/07/09 02:51:06;;;;;;;12.97;3.43;;;;;;;13.20;100.00;100381.78;4197792;28;20239;-65
2022/07/09 02:53:33;;;;;;;6.83;3.13;;;;;;;13.23;100.00;100389.50;4199603;28;20324;-62
2022/07/09 02:55:59;;;;;;;8.93;3.30;;;;;;;13.16;100.00;100387.63;4191607;28;21657;-62
2022/07/09 02:58:26;;;;;;;9.47;3.33;;;;;;;13.23;100.00;100389.50;4195460;28;20240;-66
2022/07/09 03:00:52;;;;;;;15.23;3.63;;;;;;;13.15;100.00;100392.13;4190611;28;20258;-67
2022/07/09 03:03:19;;;;;;;11.27;3.73;;;;;;;13.06;100.00;100383.28;4192107;28;20252;-65
2022/07/09 03:05:45;;;;;;;9.77;3.33;;;;;;;13.02;100.00;100383.75;4194808;28;20311;-62
2022/07/09 03:08:12;;;;;;;8.17;3.70;;;;;;;13.04;100.00;100379.06;4182140;28;20241;-63
2022/07/09 03:10:39;;;;;;;10.17;3.50;;;;;;;13.13;100.00;100382.59;4201523;28;20224;-61
2022/07/09 03:13:05;;;;;;;12.33;4.10;;;;;;;13.09;100.00;100374.94;4199962;28;20292;-62
2022/07/09 03:15:37;;;;;;;10.87;3.77;;;;;;;13.04;100.00;100371.91;4194810;28;20242;-66
2022/07/09 03:18:08;;;;;;;8.37;3.13;;;;;;;13.07;100.00;100376.91;4201301;28;20649;-62
2022/07/09 03:20:35;;;;;;;15.33;3.97;;;;;;;13.10;100.00;100378.44;4225256;28;20231;-66
2022/07/09 03:23:06;;;;;;;16.33;4.00;;;;;;;13.01;100.00;100374.06;4194363;28;20250;-65
2022/07/09 03:25:32;;;;;;;9.33;3.50;;;;;;;13.09;100.00;100368.75;4193914;28;20653;-63
2022/07/09 03:27:59;;;;;;;10.50;3.30;;;;;;;13.14;100.00;100370.94;4210824;28;20323;-62
2022/07/09 03:30:25;;;;;;;10.40;3.60;;;;;;;13.12;100.00;100370.25;4197327;28;20230;-63
2022/07/09 03:32:52;;;;;;;15.10;3.60;;;;;;;13.01;100.00;100360.69;4192638;28;22277;-63
2022/07/09 03:35:19;;;;;;;9.80;3.60;;;;;;;13.05;100.00;100370.91;4199005;28;20606;-62
2022/07/09 03:37:45;;;;;;;12.63;3.87;;;;;;;13.01;100.00;100369.53;4196864;28;22928;-65
2022/07/09 03:40:12;;;;;;;8.97;3.30;;;;;;;13.03;100.00;100372.06;4180703;28;21904;-62
2022/07/09 03:42:39;;;;;;;14.40;4.27;;;;;;;12.99;100.00;100387.56;4204432;28;20260;-63
2022/07/09 03:45:06;;;;;;;12.57;4.13;;;;;;;12.89;100.00;100376.19;4202222;28;20241;-64
2022/07/09 03:47:32;;;;;;;8.43;4.17;;;;;;;12.85;100.00;100377.50;4188280;28;20236;-64
2022/07/09 03:49:59;;;;;;;8.67;3.77;;;;;;;12.91;100.00;100376.88;4193354;28;22852;-64
2022/07/09 03:52:26;;;;;;;10.20;4.17;;;;;;;12.84;100.00;100373.16;4206648;28;22707;-61
2022/07/09 03:54:52;;;;;;;12.23;3.90;;;;;;;12.92;100.00;100375.03;4205859;28;20306;-62
2022/07/09 03:57:19;;;;;;;9.70;3.60;;;;;;;12.91;100.00;100370.69;4193232;28;20318;-64
2022/07/09 03:59:45;;;;;;;11.93;3.80;;;;;;;12.80;100.00;100366.47;4197494;28;20307;-61
2022/07/09 04:02:12;;;;;;;9.90;3.53;;;;;;;12.88;100.00;100374.53;4205311;28;21655;-63
2022/07/09 04:04:40;;;;;;;9.90;3.97;;;;;;;12.88;100.00;100369.19;4209182;28;20286;-63
2022/07/09 04:07:06;;;;;;;13.20;3.47;;;;;;;12.96;100.00;100366.53;4208616;28;20246;-65
2022/07/09 04:09:33;;;;;;;12.70;4.10;;;;;;;13.00;100.00;100362.53;4200907;28;20251;-63
2022/07/09 04:11:59;;;;;;;7.93;3.43;;;;;;;13.13;100.00;100362.06;4201296;28;20287;-64
2022/07/09 04:14:26;;;;;;;9.43;3.70;;;;;;;13.10;100.00;100368.56;4205959;28;20284;-64
2022/07/09 04:16:52;;;;;;;12.23;3.40;;;;;;;13.17;100.00;100362.59;4210168;28;20284;-67
2022/07/09 04:19:19;;;;;;;12.77;3.73;;;;;;;13.17;100.00;100367.94;4200749;28;23598;-64
2022/07/09 04:21:46;;;;;;;8.00;3.30;;;;;;;13.38;100.00;100365.66;4184254;28;20236;-64
2022/07/09 04:24:15;;;;;;;15.97;4.10;;;;;;;13.33;100.00;100365.31;4202862;28;23518;-66
2022/07/09 04:26:42;;;;;;;10.10;3.37;;;;;;;13.40;100.00;100360.97;4196997;28;20291;-63
2022/07/09 04:29:10;;;;;;;8.63;3.43;;;;;;;13.45;100.00;100355.97;4200088;28;23320;-63
2022/07/09 04:31:37;;;;;;;8.83;3.37;;;;;;;13.55;100.00;100352.31;4191535;28;20319;-64
2022/07/09 04:34:04;;;;;;;10.80;3.50;;;;;;;13.62;100.00;100355.97;4207345;28;22297;-64
2022/07/09 04:36:31;;;;;;;12.03;3.67;;;;;;;13.72;100.00;100345.97;4173897;28;20248;-66
2022/07/09 04:38:58;;;;;;;9.57;3.63;;;;;;;13.70;100.00;100353.31;4199073;28;20235;-66
2022/07/09 04:41:24;;;;;;;10.30;3.20;;;;;;;13.80;100.00;100358.50;4214377;28;20244;-67
2022/07/09 04:43:51;;;;;;;9.43;3.00;;;;;;;14.04;100.00;100352.28;4212652;28;20282;-64
2022/07/09 04:46:17;;;;;;;15.27;3.83;;;;;;;14.50;100.00;100357.88;4194730;28;20232;-63
2022/07/09 04:48:44;;;;;;;9.77;3.80;;;;;;;14.52;100.00;100354.00;4207611;28;20236;-63
2022/07/09 04:51:10;;;;;;;7.03;3.50;;;;;;;14.61;100.00;100360.22;4208957;28;20243;-66
2022/07/09 04:53:37;;;;;;;8.23;3.83;;;;;;;14.91;98.78;100365.75;4200764;28;20282;-64
2022/07/09 04:56:04;;;;;;;9.90;4.03;;;;;;;14.88;97.95;100372.31;4216750;28;20236;-62
2022/07/09 04:58:30;;;;;;;9.60;4.00;;;;;;;14.76;97.55;100369.16;4224612;28;28652;-64
2022/07/09 05:00:57;;;;;;;12.83;4.03;;;;;;;14.84;97.46;100364.78;4210153;28;20259;-65
2022/07/09 05:03:24;;;;;;;8.80;4.07;;;;;;;14.99;96.50;100371.09;4209923;28;20239;-63
2022/07/09 05:05:51;;;;;;;8.20;3.80;;;;;;;14.94;97.24;100363.56;4196691;28;20287;-66
2022/07/09 05:08:18;;;;;;;9.27;4.03;;;;;;;14.93;97.72;100364.56;4206661;28;21894;-63
2022/07/09 05:10:45;;;;;;;10.40;3.63;;;;;;;15.00;97.29;100367.38;4204138;28;20235;-65
2022/07/09 05:13:11;;;;;;;6.93;3.30;;;;;;;15.14;97.70;100372.00;4212151;28;20585;-63
2022/07/09 05:15:38;;;;;;;6.20;3.37;;;;;;;15.27;96.37;100367.94;4205013;28;20265;-63
2022/07/09 05:18:05;;;;;;;10.40;3.50;;;;;;;15.18;96.42;100365.28;4200947;28;21017;-63
2022/07/09 05:20:32;;;;;;;10.80;3.60;;;;;;;15.39;95.36;100377.22;4211510;28;20761;-64
2022/07/09 05:22:58;;;;;;;6.93;3.43;;;;;;;15.35;94.59;100373.22;4216455;28;20947;-64
2022/07/09 05:25:25;;;;;;;8.90;3.07;;;;;;;15.24;95.13;100368.25;4208636;28;20235;-63
2022/07/09 05:27:51;;;;;;;7.73;3.47;;;;;;;15.08;96.28;100367.34;4199893;28;20244;-64
2022/07/09 05:30:18;;;;;;;9.97;4.03;;;;;;;15.28;95.23;100369.56;4207032;28;20644;-63
2022/07/09 05:32:46;;;;;;;11.30;4.50;;;;;;;15.27;95.30;100367.94;4205143;28;21211;-66
2022/07/09 05:35:13;;;;;;;10.60;3.93;;;;;;;15.56;94.57;100373.41;4206544;28;21811;-65
2022/07/09 05:37:43;;;;;;;9.17;3.80;;;;;;;16.06;92.06;100367.66;4207115;28;20955;-63
2022/07/09 05:40:11;;;;;;;10.07;3.27;;;;;;;16.68;90.47;100364.63;4210456;28;20237;-64
2022/07/09 05:42:38;;;;;;;9.73;2.73;;;;;;;16.82;86.16;100358.44;4208675;28;21778;-63
2022/07/09 05:45:05;;;;;;;5.83;2.00;;;;;;;17.20;83.84;100360.94;4210591;28;20263;-65
2022/07/09 05:47:32;;;;;;;7.50;2.80;;;;;;;17.37;82.23;100363.38;4211995;28;22353;-62
2022/07/09 05:49:59;;;;;;;5.80;1.93;;;;;;;18.17;80.61;100369.50;4205539;28;20242;-64
2022/07/09 05:52:25;;;;;;;10.03;2.70;;;;;;;18.49;78.16;100371.56;4201923;28;20233;-62
2022/07/09 05:54:52;;;;;;;5.97;2.30;;;;;;;18.74;76.55;100368.41;4205917;28;20417;-63
2022/07/09 05:57:18;;;;;;;6.10;2.10;;;;;;;18.75;76.01;100364.66;4219214;28;20228;-62
2022/07/09 05:59:45;;;;;;;4.07;1.70;;;;;;;18.94;72.92;100374.75;4207241;28;22205;-62
2022/07/09 06:02:12;;;;;;;6.77;2.20;;;;;;;18.78;75.97;100364.31;4207156;28;20240;-65
2022/07/09 06:04:39;;;;;;;7.10;2.70;;;;;;;18.34;78.47;100368.19;4205440;28;20458;-64
2022/07/09 06:07:05;;;;;;;5.87;2.57;;;;;;;17.94;81.14;100354.44;4191194;28;20563;-64
2022/07/09 06:09:32;;;;;;;5.80;2.47;;;;;;;17.92;81.17;100356.50;4207545;28;20342;-63
2022/07/09 06:11:58;;;;;;;5.30;2.70;;;;;;;17.83;80.51;100360.34;4203887;28;20297;-65
2022/07/09 06:14:25;;;;;;;4.67;2.00;;;;;;;18.03;80.38;100350.56;4195995;28;20397;-63
2022/07/09 06:16:55;;;;;;;5.83;2.40;;;;;;;17.56;80.61;100354.72;4204507;28;20590;-64
2022/07/09 06:19:22;;;;;;;7.40;2.50;;;;;;;17.38;82.35;100347.06;4207121;28;20335;-63
2022/07/09 06:21:49;;;;;;;6.27;2.80;;;;;;;17.37;83.55;100349.94;4199876;28;20239;-63
2022/07/09 06:24:16;;;;;;;7.63;3.57;;;;;;;17.34;84.71;100348.47;4201841;28;20453;-65
2022/07/09 06:26:42;;;;;;;6.93;3.97;;;;;;;17.13;84.76;100343.09;4211282;28;20291;-63
2022/07/09 06:29:09;;;;;;;8.10;4.10;;;;;;;16.91;84.41;100344.91;4200592;28;22137;-63
2022/07/09 06:31:35;;;;;;;9.33;4.17;;;;;;;16.37;86.80;100337.97;4206798;28;20227;-64
2022/07/09 06:34:02;;;;;;;8.10;4.10;;;;;;;16.34;88.90;100351.75;4199266;28;20382;-65
2022/07/09 06:36:30;;;;;;;7.53;3.90;;;;;;;16.15;90.44;100347.75;4211090;28;22168;-64
2022/07/09 06:41:41;;;;;;;4.87;3.90;;;;;;;16.24;89.69;100339.44;4186854;28;20259;-67
2022/07/09 06:44:08;;;;;;;5.43;3.53;;;;;;;16.42;89.31;100341.75;4204582;28;21531;-61
2022/07/09 06:46:35;;;;;;;9.30;4.03;;;;;;;16.45;88.95;100330.63;4202174;28;21423;-62
2022/07/09 06:49:02;;;;;;;10.47;4.37;;;;;;;16.42;88.90;100330.19;4197576;28;20237;-65
2022/07/09 06:51:28;;;;;;;11.17;4.20;;;;;;;16.41;89.45;100333.88;4191442;28;20238;-74
2022/07/09 06:53:55;;;;;;;8.30;3.97;;;;;;;16.52;89.23;100329.91;4177385;28;20310;-74
2022/07/09 06:56:22;;;;;;;8.30;3.80;;;;;;;16.56;88.97;100321.28;4202156;28;20228;-75
2022/07/09 06:58:49;;;;;;;6.07;3.87;;;;;;;16.53;89.28;100321.66;4214261;28;20306;-74
2022/07/09 07:01:15;;;;;;;6.27;3.07;;;;;;;16.75;88.30;100327.94;4210512;28;22960;-74
2022/07/09 07:03:42;;;;;;;5.77;3.30;;;;;;;16.86;85.84;100327.47;4205737;28;20528;-75
2022/07/09 07:06:08;;;;;;;6.00;3.17;;;;;;;17.12;85.00;100325.28;4199645;28;20316;-77
2022/07/09 07:08:35;;;;;;;10.23;3.23;;;;;;;17.54;83.32;100323.63;4206790;28;20710;-73
2022/07/09 07:11:03;;;;;;;4.70;2.73;;;;;;;17.82;82.48;100327.22;4201890;28;20234;-75
2022/07/09 07:13:29;;;;;;;5.27;2.70;;;;;;;18.67;77.47;100325.25;4205328;28;20491;-71
2022/07/09 07:15:56;;;;;;;6.03;2.57;;;;;;;19.15;74.73;100325.25;4248131;28;21757;-74
2022/07/09 07:18:23;;;;;;;4.73;2.10;;;;;;;18.56;74.71;100323.94;4215777;28;22220;-77
2022/07/09 07:20:49;;;;;;;4.37;2.10;;;;;;;18.39;77.60;100316.41;4196897;28;21268;-71
2022/07/09 07:23:16;;;;;;;3.20;2.03;;;;;;;18.63;74.82;100323.16;4230062;28;21019;-71
2022/07/09 07:25:42;;;;;;;5.53;2.07;;;;;;;19.12;73.42;100327.50;4217000;28;20235;-72
2022/07/09 07:28:09;;;;;;;4.43;2.20;;;;;;;19.06;72.79;100323.75;4209109;28;20228;-77
2022/07/09 07:30:36;;;;;;;4.57;2.10;;;;;;;19.26;73.32;100320.28;4212295;28;20228;-74
2022/07/09 07:33:02;;;;;;;4.70;2.03;;;;;;;19.23;72.78;100316.13;4214720;28;21048;-74
2022/07/09 07:35:29;;;;;;;4.83;1.30;;;;;;;19.13;71.64;100315.69;4201878;28;20393;-74
2022/07/09 07:38:01;;;;;;;5.67;2.17;;;;;;;18.75;72.49;100310.75;4222575;28;21756;-73
2022/07/09 07:40:28;;;;;;;3.63;1.63;;;;;;;19.07;71.90;100313.78;4206691;28;20311;-75
2022/07/09 07:42:54;;;;;;;4.57;1.50;;;;;;;19.76;69.88;100318.03;4223871;28;21992;-79
2022/07/09 07:45:21;;;;;;;2.37;1.60;;;;;;;19.93;69.76;100310.38;4222032;28;20297;-75
2022/07/09 07:47:48;;;;;;;5.37;1.77;;;;;;;19.68;68.37;100311.00;4212365;28;20419;-63
2022/07/09 07:50:14;;;;;;;5.33;1.60;;;;;;;19.81;68.48;100313.69;4201779;28;20229;-65
2022/07/09 07:52:41;;;;;;;8.90;2.27;;;;;;;19.84;68.22;100314.31;4208995;28;21420;-65
2022/07/09 07:55:13;;;;;;;2.83;1.50;;;;;;;20.09;65.51;100309.94;4201126;28;20430;-61
2022/07/09 07:57:39;;;;;;;5.60;1.50;;;;;;;20.62;63.92;100312.50;4222616;28;20236;-62
2022/07/09 08:00:07;;;;;;;4.63;1.33;;;;;;;20.69;62.75;100300.84;4187717;28;24344;-63
2022/07/09 08:02:34;;;;;;;5.23;1.40;;;;;;;20.82;61.70;100304.31;4191837;28;20517;-62
2022/07/09 08:05:01;;;;;;;4.03;1.33;;;;;;;20.35;62.72;100290.13;4185452;28;20314;-64
2022/07/09 08:07:27;;;;;;;5.13;1.17;;;;;;;19.91;64.79;100298.94;4187382;28;20233;-65
2022/07/09 08:09:54;;;;;;;2.00;1.00;;;;;;;20.58;63.62;100300.47;4187398;28;23396;-64
2022/07/09 08:12:21;;;;;;;4.03;1.30;;;;;;;20.83;61.00;100303.25;4185901;28;20767;-67
2022/07/09 08:14:47;;;;;;;3.53;1.13;;;;;;;21.38;59.98;100304.59;4203369;28;23390;-64
2022/07/09 08:17:14;;;;;;;2.10;1.10;;;;;;;21.38;56.79;100307.31;4191249;28;21374;-63
2022/07/09 08:19:40;;;;;;;3.97;1.37;;;;;;;21.78;56.37;100310.56;4201189;28;20250;-64
2022/07/09 08:22:07;;;;;;;2.67;1.17;;;;;;;21.62;55.38;100300.28;4200895;28;21503;-62
2022/07/09 08:24:33;;;;;;;6.17;1.20;;;;;;;21.01;58.16;100293.59;4190865;28;20543;-63
2022/07/09 08:27:00;;;;;;;10.50;2.63;;;;;;;20.79;58.86;100284.97;4207467;28;20235;-64
2022/07/09 08:29:27;;;;;;;6.67;1.30;;;;;;;21.02;60.18;100279.84;4199783;28;20615;-62
2022/07/09 08:31:53;;;;;;;7.43;1.50;;;;;;;21.44;58.67;100288.31;4226437;28;20601;-62
2022/07/09 08:34:20;;;;;;;3.53;1.10;;;;;;;21.57;54.97;100292.00;4207055;28;20283;-62
2022/07/09 08:36:47;;;;;;;3.33;1.00;;;;;;;21.29;56.41;100277.78;4193808;28;22291;-64
2022/07/09 08:39:13;;;;;;;5.27;1.30;;;;;;;21.08;58.03;100278.97;4193403;28;20545;-65
2022/07/09 08:41:40;;;;;;;5.40;0.90;;;;;;;20.56;58.40;100286.34;4191353;28;20231;-62
2022/07/09 08:44:10;;;;;;;4.33;1.07;;;;;;;20.19;60.96;100268.97;4189579;28;21269;-63
2022/07/09 08:46:36;;;;;;;3.50;0.80;;;;;;;20.31;58.35;100266.44;4202463;28;21431;-63
2022/07/09 08:49:07;;;;;;;4.10;1.10;;;;;;;20.77;56.43;100268.97;4198865;28;21673;-65
2022/07/09 08:51:36;;;;;;;5.97;1.30;;;;;;;21.10;55.63;100261.72;4193677;28;20243;-61
2022/07/09 08:54:03;;;;;;;5.13;1.27;;;;;;;21.06;53.85;100267.53;4201979;28;24135;-63
2022/07/09 08:56:30;;;;;;;3.33;1.30;;;;;;;20.82;55.04;100265.63;4209268;28;20232;-62
2022/07/09 08:58:56;;;;;;;3.83;1.20;;;;;;;20.94;56.60;100254.94;4197159;28;21184;-57
2022/07/09 09:01:25;;;;;;;2.50;0.90;;;;;;;20.66;58.03;100262.34;4202186;28;20294;-55
2022/07/09 09:03:52;;;;;;;5.90;1.10;;;;;;;20.64;58.45;100259.03;4192524;28;20282;-61
2022/07/09 09:06:21;;;;;;;6.00;1.10;;;;;;;20.74;55.77;100266.69;4184538;28;21168;-62
2022/07/09 09:08:47;;;;;;;3.67;1.10;;;;;;;20.97;54.44;100263.44;4183799;28;20239;-64
2022/07/09 09:11:23;;;;;;;6.33;1.00;;;;;;;20.90;55.07;100259.13;4195313;28;20230;-60
2022/07/09 09:13:51;;;;;;;4.97;1.17;;;;;;;21.20;53.75;100248.50;4221853;28;20235;-64
2022/07/09 09:16:18;;;;;;;3.03;1.00;;;;;;;21.47;52.79;100241.88;4193224;28;21455;-65
2022/07/09 09:18:47;;;;;;;4.97;1.00;;;;;;;21.13;49.89;100245.03;4210772;28;20287;-62
2022/07/09 09:21:15;;;;;;;4.00;1.10;;;;;;;20.77;52.66;100244.63;4210038;28;20270;-63
2022/07/09 09:23:47;;;;;;;2.87;1.10;;;;;;;20.59;53.20;100248.03;4195549;28;20288;-62
2022/07/09 09:26:21;;;;;;;2.97;0.93;;;;;;;20.76;52.79;100242.13;4202499;28;20240;-62
2022/07/09 09:28:55;;;;;;;3.93;1.20;;;;;;;21.05;52.68;100241.53;4203960;28;20240;-63
2022/07/09 09:31:35;;;;;;;4.50;1.10;;;;;;;20.99;53.81;100233.47;4198493;28;20257;-64
2022/07/09 09:34:08;;;;;;;6.03;1.20;;;;;;;21.08;53.54;100232.97;4203208;28;21746;-64
2022/07/09 09:36:36;;;;;;;2.17;1.10;;;;;;;20.92;51.42;100241.63;4216726;28;22998;-63
2022/07/09 09:39:12;;;;;;;2.87;1.10;;;;;;;20.88;52.86;100240.38;4176584;28;20291;-64
2022/07/09 09:41:40;;;;;;;5.33;1.20;;;;;;;20.78;54.08;100234.63;4195265;28;20720;-64
2022/07/09 09:44:09;;;;;;;6.53;1.30;;;;;;;20.55;56.03;100230.56;4198218;28;20245;-65
2022/07/09 09:46:40;;;;;;;5.83;1.40;;;;;;;20.68;55.86;100218.88;4181220;28;20227;-66
2022/07/09 09:49:08;;;;;;;4.97;1.20;;;;;;;21.10;51.81;100231.94;4198436;28;22256;-65
2022/07/09 09:51:37;;;;;;;9.60;1.33;;;;;;;21.22;51.97;100233.72;4207184;28;20393;-65
2022/07/09 09:54:05;;;;;;;5.60;1.43;;;;;;;21.07;53.13;100230.47;4191632;28;20530;-65
2022/07/09 09:56:32;;;;;;;5.27;1.27;;;;;;;21.10;53.68;100215.72;4187941;28;20229;-64
2022/07/09 09:58:59;;;;;;;3.47;1.23;;;;;;;21.36;53.83;100223.63;4203285;28;20268;-67
2022/07/09 10:01:27;;;;;;;2.83;1.10;;;;;;;20.93;53.25;100221.66;4217286;28;20234;-64
2022/07/09 10:03:55;;;;;;;3.90;1.47;;;;;;;20.51;54.45;100213.13;4182240;28;20248;-64
2022/07/09 10:06:22;;;;;;;5.87;1.40;;;;;;;20.68;54.32;100201.84;4176791;28;20323;-67
2022/07/09 10:08:49;;;;;;;7.83;1.47;;;;;;;20.91;53.78;100194.00;4208911;28;22206;-63
2022/07/09 10:11:15;;;;;;;9.43;3.57;;;;;;;21.25;54.42;100191.84;4198654;28;20227;-64
2022/07/09 10:13:52;;;;;;;3.77;1.30;;;;;;;21.42;51.90;100192.13;4214013;28;21265;-65
2022/07/09 10:16:19;;;;;;;4.70;1.30;;;;;;;21.16;50.72;100187.75;4192968;28;20248;-64
2022/07/09 10:18:52;;;;;;;6.47;1.50;;;;;;;21.40;49.50;100195.09;4184549;28;20297;-64
2022/07/09 10:21:43;;;;;;;9.73;1.47;;;;;;;21.48;50.36;100186.66;4196153;28;20956;-63
2022/07/09 10:24:10;;;;;;;4.40;1.17;;;;;;;21.59;49.66;100187.00;4211759;28;20326;-66
2022/07/09 10:26:46;;;;;;;6.13;1.43;;;;;;;21.60;46.33;100185.94;4188654;28;20331;-62
2022/07/09 10:29:21;;;;;;;4.93;1.30;;;;;;;21.59;47.98;100187.00;4209534;28;20237;-64
2022/07/09 10:31:48;;;;;;;4.30;1.10;;;;;;;21.54;47.05;100182.25;4197791;28;20973;-64
2022/07/09 10:34:30;;;;;;;6.50;1.20;;;;;;;21.64;48.33;100176.31;4210112;28;20239;-65
2022/07/09 10:37:02;;;;;;;7.07;1.37;;;;;;;21.37;43.29;100181.13;4209663;28;22173;-64
2022/07/09 10:39:29;;;;;;;5.10;1.27;;;;;;;21.29;43.79;100179.53;4209370;28;20868;-67
2022/07/09 10:42:07;;;;;;;4.63;1.73;;;;;;;21.19;43.92;100176.47;4210958;28;20594;-62
2022/07/09 10:44:35;;;;;;;3.57;0.90;;;;;;;21.08;44.34;100176.16;4194321;28;20540;-64
2022/07/09 10:47:06;;;;;;;7.97;1.13;;;;;;;21.31;44.24;100180.16;4204828;28;20282;-65
2022/07/09 10:49:36;;;;;;;3.93;1.10;;;;;;;21.28;44.95;100191.41;4210819;28;20232;-64
2022/07/09 10:52:04;;;;;;;4.77;1.00;;;;;;;21.23;45.06;100178.53;4204063;28;20579;-63
2022/07/09 10:54:32;;;;;;;4.40;1.23;;;;;;;21.34;43.43;100182.41;4198601;28;20238;-65
2022/07/09 10:56:59;;;;;;;7.83;1.20;;;;;;;21.24;43.63;100182.09;4218953;28;20313;-63
2022/07/09 10:59:27;;;;;;;4.97;1.30;;;;;;;21.28;43.74;100176.00;4206984;28;20242;-65
2022/07/09 11:01:55;;;;;;;13.17;1.67;;;;;;;21.33;45.34;100172.63;4198006;28;23468;-67
2022/07/09 11:04:25;;;;;;;4.03;1.47;;;;;;;21.59;46.70;100170.75;4190965;28;20237;-63
2022/07/09 11:06:58;;;;;;;3.83;1.30;;;;;;;21.53;45.06;100174.34;4195376;28;20702;-64
2022/07/09 11:09:30;;;;;;;2.30;1.00;;;;;;;21.06;46.80;100169.31;4184151;28;21146;-66
2022/07/09 11:11:57;;;;;;;3.23;1.10;;;;;;;20.84;49.35;100175.09;4192854;28;20914;-65
2022/07/09 11:14:23;;;;;;;3.80;1.47;;;;;;;20.88;46.68;100172.75;4200092;28;22328;-64
2022/07/09 11:16:58;;;;;;;5.97;1.40;;;;;;;21.06;45.39;100167.44;4198249;28;23550;-66
2022/07/09 11:19:25;;;;;;;4.17;1.10;;;;;;;21.05;44.37;100182.03;4202998;28;25517;-62
2022/07/09 11:22:01;;;;;;;4.40;1.10;;;;;;;20.98;45.19;100180.41;4214753;28;23309;-62
2022/07/09 11:24:29;;;;;;;4.43;1.30;;;;;;;21.03;44.53;100164.34;4206160;28;20243;-63